sensor_id;sensor_type;location;lat;lon;timestamp;pressure;altitude;pressure_sealevel;temperature;humidity
5413;BME280;2729;50.056;8.678;2023-02-04T00:00:19;101607.56;;;9.95;100.00
5413;BME280;2729;50.056;8.678;2023-02-04T00:02:45;101604.94;;;9.94;100.00
5413;BME280;2729;50.056;8.678;2023-02-04T00:05:11;101616.25;;;9.82;100.00
5413;BME280;2729;50.056;8.678;2023-02-04T00:07:37;101618.00;;;9.94;100.00
5413;BME280;2729;50.056;8.678;2023-02-04T00:10:05;101625.81;;;9.80;100.00
5413;BME280;2729;50.056;8.678;2023-02-04T00:12:31;101622.34;;;9.99;100.00
5413;BME280;2729;50.056;8.678;2023-02-04T00:14:58;101622.34;;;9.93;100.00
5413;BME280;2729;50.056;8.678;2023-02-04T00:17:24;101625.81;;;9.80;100.00
5413;BME280;2729;50.056;8.678;2023-02-04T00:19:50;101627.56;;;9.84;100.00
5413;BME280;2729;50.056;8.678;2023-02-04T00:22:16;101624.06;;;10.00;100.00
5413;BME280;2729;50.056;8.678;2023-02-04T00:24:42;101627.56;;;9.87;100.00
5413;BME280;2729;50.056;8.678;2023-02-04T00:27:13;101612.78;;;9.86;100.00
5413;BME280;2729;50.056;8.678;2023-02-04T00:29:39;101621.47;;;9.73;100.00
5413;BME280;2729;50.056;8.678;2023-02-04T00:32:04;101620.59;;;9.89;100.00
5413;BME280;2729;50.056;8.678;2023-02-04T00:34:30;101632.78;;;9.87;100.00
5413;BME280;2729;50.056;8.678;2023-02-04T00:36:56;101630.16;;;9.81;100.00
5413;BME280;2729;50.056;8.678;2023-02-04T00:39:22;101631.03;;;9.57;100.00
5413;BME280;2729;50.056;8.678;2023-02-04T00:41:48;101624.09;;;9.73;100.00
5413;BME280;2729;50.056;8.678;2023-02-04T00:44:14;101642.31;;;9.59;100.00
5413;BME280;2729;50.056;8.678;2023-02-04T00:46:41;101637.09;;;9.58;100.00
5413;BME280;2729;50.056;8.678;2023-02-04T00:49:08;101625.81;;;9.65;100.00
5413;BME280;2729;50.056;8.678;2023-02-04T00:51:37;101626.69;;;9.79;100.00
5413;BME280;2729;50.056;8.678;2023-02-04T00:54:05;101625.81;;;9.73;100.00
5413;BME280;2729;50.056;8.678;2023-02-04T00:56:32;101640.59;;;9.60;100.00
5413;BME280;2729;50.056;8.678;2023-02-04T00:58:58;101640.59;;;9.78;100.00
5413;BME280;2729;50.056;8.678;2023-02-04T01:01:24;101633.66;;;9.88;100.00
5413;BME280;2729;50.056;8.678;2023-02-04T01:03:50;101637.97;;;9.72;100.00
5413;BME280;2729;50.056;8.678;2023-02-04T01:06:16;101646.69;;;9.76;100.00
5413;BME280;2729;50.056;8.678;2023-02-04T01:08:42;101645.81;;;9.93;100.00
5413;BME280;2729;50.056;8.678;2023-02-04T01:11:08;101658.84;;;9.84;100.00
5413;BME280;2729;50.056;8.678;2023-02-04T01:13:34;101657.97;;;9.88;100.00
5413;BME280;2729;50.056;8.678;2023-02-04T01:16:00;101658.84;;;9.75;100.00
5413;BME280;2729;50.056;8.678;2023-02-04T01:18:26;101664.94;;;9.91;100.00
5413;BME280;2729;50.056;8.678;2023-02-04T01:20:52;101669.28;;;9.75;100.00
5413;BME280;2729;50.056;8.678;2023-02-04T01:23:18;101668.41;;;9.67;100.00
5413;BME280;2729;50.056;8.678;2023-02-04T01:25:43;101675.34;;;9.76;100.00
5413;BME280;2729;50.056;8.678;2023-02-04T01:28:10;101664.94;;;9.86;100.00
5413;BME280;2729;50.056;8.678;2023-02-04T01:30:36;101673.59;;;9.58;100.00
5413;BME280;2729;50.056;8.678;2023-02-04T01:33:02;101689.25;;;9.68;100.00
5413;BME280;2729;50.056;8.678;2023-02-04T01:35:28;101683.19;;;9.74;100.00
5413;BME280;2729;50.056;8.678;2023-02-04T01:37:54;101702.31;;;9.82;100.00
5413;BME280;2729;50.056;8.678;2023-02-04T01:40:20;101689.25;;;9.72;100.00
5413;BME280;2729;50.056;8.678;2023-02-04T01:42:46;101691.84;;;9.61;100.00
5413;BME280;2729;50.056;8.678;2023-02-04T01:45:12;101691.00;;;9.70;100.00
5413;BME280;2729;50.056;8.678;2023-02-04T01:47:38;101694.50;;;9.88;100.00
5413;BME280;2729;50.056;8.678;2023-02-04T01:50:05;101696.22;;;9.88;100.00
5413;BME280;2729;50.056;8.678;2023-02-04T01:52:34;101704.91;;;9.78;100.00
5413;BME280;2729;50.056;8.678;2023-02-04T01:55:01;101694.47;;;9.82;100.00
5413;BME280;2729;50.056;8.678;2023-02-04T01:57:27;101721.38;;;9.52;100.00
5413;BME280;2729;50.056;8.678;2023-02-04T01:59:54;101717.91;;;9.56;100.00
5413;BME280;2729;50.056;8.678;2023-02-04T02:02:43;101723.97;;;9.57;100.00
5413;BME280;2729;50.056;8.678;2023-02-04T02:05:13;101711.81;;;9.62;100.00
5413;BME280;2729;50.056;8.678;2023-02-04T02:07:40;101717.91;;;9.61;100.00
5413;BME280;2729;50.056;8.678;2023-02-04T02:10:09;101732.63;;;9.41;100.00
5413;BME280;2729;50.056;8.678;2023-02-04T02:12:36;101725.69;;;9.43;100.00
5413;BME280;2729;50.056;8.678;2023-02-04T02:15:03;101728.34;;;9.64;100.00
5413;BME280;2729;50.056;8.678;2023-02-04T02:17:29;101731.78;;;9.46;100.00
5413;BME280;2729;50.056;8.678;2023-02-04T02:19:55;101731.72;;;9.28;100.00
5413;BME280;2729;50.056;8.678;2023-02-04T02:22:28;101729.13;;;9.34;100.00
5413;BME280;2729;50.056;8.678;2023-02-04T02:24:54;101740.41;;;9.30;100.00
5413;BME280;2729;50.056;8.678;2023-02-04T02:27:20;101740.41;;;9.36;100.00
5413;BME280;2729;50.056;8.678;2023-02-04T02:29:46;101736.88;;;9.20;100.00
5413;BME280;2729;50.056;8.678;2023-02-04T02:32:13;101742.13;;;9.29;100.00
5413;BME280;2729;50.056;8.678;2023-02-04T02:34:40;101745.53;;;9.13;100.00
5413;BME280;2729;50.056;8.678;2023-02-04T02:37:07;101737.72;;;9.10;100.00
5413;BME280;2729;50.056;8.678;2023-02-04T02:39:37;101740.22;;;8.93;100.00
5413;BME280;2729;50.056;8.678;2023-02-04T02:42:04;101752.41;;;9.00;100.00
5413;BME280;2729;50.056;8.678;2023-02-04T02:44:31;101740.22;;;8.92;100.00
5413;BME280;2729;50.056;8.678;2023-02-04T02:46:57;101748.06;;;8.99;100.00
5413;BME280;2729;50.056;8.678;2023-02-04T02:49:31;101747.22;;;9.05;100.00
5413;BME280;2729;50.056;8.678;2023-02-04T02:51:57;101737.69;;;9.06;100.00
5413;BME280;2729;50.056;8.678;2023-02-04T02:54:29;101731.50;;;8.87;100.00
5413;BME280;2729;50.056;8.678;2023-02-04T02:56:59;101732.41;;;8.92;100.00
5413;BME280;2729;50.056;8.678;2023-02-04T02:59:25;101741.84;;;8.72;100.00
5413;BME280;2729;50.056;8.678;2023-02-04T03:01:58;101749.66;;;8.75;100.00
5413;BME280;2729;50.056;8.678;2023-02-04T03:04:29;101748.78;;;8.74;100.00
5413;BME280;2729;50.056;8.678;2023-02-04T03:06:56;101744.56;;;8.94;100.00
5413;BME280;2729;50.056;8.678;2023-02-04T03:09:24;101755.00;;;8.96;100.00
5413;BME280;2729;50.056;8.678;2023-02-04T03:11:51;101760.16;;;8.88;100.00
5413;BME280;2729;50.056;8.678;2023-02-04T03:14:17;101756.78;;;9.06;100.00
5413;BME280;2729;50.056;8.678;2023-02-04T03:16:44;101759.31;;;8.92;100.00
5413;BME280;2729;50.056;8.678;2023-02-04T03:19:11;101764.50;;;8.88;100.00
5413;BME280;2729;50.056;8.678;2023-02-04T03:21:38;101763.72;;;9.06;100.00
5413;BME280;2729;50.056;8.678;2023-02-04T03:24:04;101769.72;;;8.92;100.00
5413;BME280;2729;50.056;8.678;2023-02-04T03:26:30;101772.41;;;9.05;100.00
5413;BME280;2729;50.056;8.678;2023-02-04T03:28:57;101777.56;;;8.94;100.00
5413;BME280;2729;50.056;8.678;2023-02-04T03:31:24;101785.34;;;8.92;100.00
5413;BME280;2729;50.056;8.678;2023-02-04T03:33:50;101779.25;;;8.87;100.00
5413;BME280;2729;50.056;8.678;2023-02-04T03:36:16;101787.78;;;8.66;100.00
5413;BME280;2729;50.056;8.678;2023-02-04T03:38:42;101798.34;;;8.86;100.00
5413;BME280;2729;50.056;8.678;2023-02-04T03:41:08;101797.50;;;8.93;100.00
5413;BME280;2729;50.056;8.678;2023-02-04T03:43:34;101801.75;;;8.78;100.00
5413;BME280;2729;50.056;8.678;2023-02-04T03:46:01;101804.34;;;8.78;100.00
5413;BME280;2729;50.056;8.678;2023-02-04T03:48:26;101807.84;;;8.83;100.00
5413;BME280;2729;50.056;8.678;2023-02-04T03:50:52;101824.47;;;9.03;100.00
5413;BME280;2729;50.056;8.678;2023-02-04T03:53:19;101828.78;;;8.98;100.00
5413;BME280;2729;50.056;8.678;2023-02-04T03:55:46;101820.00;;;8.81;100.00
5413;BME280;2729;50.056;8.678;2023-02-04T03:58:12;101819.22;;;8.94;100.00
5413;BME280;2729;50.056;8.678;2023-02-04T04:00:38;101816.56;;;8.88;100.00
5413;BME280;2729;50.056;8.678;2023-02-04T04:03:04;101814.84;;;8.88;100.00
5413;BME280;2729;50.056;8.678;2023-02-04T04:05:30;101815.75;;;8.93;100.00
5413;BME280;2729;50.056;8.678;2023-02-04T04:07:57;101819.09;;;8.79;100.00
5413;BME280;2729;50.056;8.678;2023-02-04T04:10:24;101817.25;;;8.62;100.00
5413;BME280;2729;50.056;8.678;2023-02-04T04:12:50;101816.38;;;8.63;100.00
5413;BME280;2729;50.056;8.678;2023-02-04T04:15:16;101825.13;;;8.73;100.00
5413;BME280;2729;50.056;8.678;2023-02-04T04:17:42;101830.44;;;8.84;100.00
5413;BME280;2729;50.056;8.678;2023-02-04T04:20:08;101827.69;;;8.67;100.00
5413;BME280;2729;50.056;8.678;2023-02-04T04:22:34;101831.97;;;8.59;100.00
5413;BME280;2729;50.056;8.678;2023-02-04T04:25:00;101840.56;;;8.52;100.00
5413;BME280;2729;50.056;8.678;2023-02-04T04:27:26;101838.00;;;8.55;100.00
5413;BME280;2729;50.056;8.678;2023-02-04T04:29:53;101836.19;;;8.45;100.00
5413;BME280;2729;50.056;8.678;2023-02-04T04:32:19;101850.84;;;8.35;100.00
5413;BME280;2729;50.056;8.678;2023-02-04T04:34:45;101839.59;;;8.39;100.00
5413;BME280;2729;50.056;8.678;2023-02-04T04:37:11;101833.56;;;8.43;100.00
5413;BME280;2729;50.056;8.678;2023-02-04T04:39:37;101834.50;;;8.50;100.00
5413;BME280;2729;50.056;8.678;2023-02-04T04:42:03;101836.19;;;8.46;100.00
5413;BME280;2729;50.056;8.678;2023-02-04T04:44:29;101835.28;;;8.41;100.00
5413;BME280;2729;50.056;8.678;2023-02-04T04:46:55;101838.75;;;8.42;100.00
5413;BME280;2729;50.056;8.678;2023-02-04T04:49:22;101831.88;;;8.50;100.00
5413;BME280;2729;50.056;8.678;2023-02-04T04:51:48;101830.34;;;8.73;100.00
5413;BME280;2729;50.056;8.678;2023-02-04T04:54:13;101836.41;;;8.72;100.00
5413;BME280;2729;50.056;8.678;2023-02-04T04:56:39;101845.03;;;8.66;100.00
5413;BME280;2729;50.056;8.678;2023-02-04T04:59:05;101853.59;;;8.52;100.00
5413;BME280;2729;50.056;8.678;2023-02-04T05:01:31;101852.72;;;8.53;100.00
5413;BME280;2729;50.056;8.678;2023-02-04T05:03:58;101841.38;;;8.45;100.00
5413;BME280;2729;50.056;8.678;2023-02-04T05:06:24;101852.63;;;8.42;100.00
5413;BME280;2729;50.056;8.678;2023-02-04T05:08:51;101855.94;;;8.29;100.00
5413;BME280;2729;50.056;8.678;2023-02-04T05:11:17;101857.59;;;8.21;100.00
5413;BME280;2729;50.056;8.678;2023-02-04T05:13:43;101861.88;;;8.16;100.00
5413;BME280;2729;50.056;8.678;2023-02-04T05:16:09;101876.59;;;8.15;100.00
5413;BME280;2729;50.056;8.678;2023-02-04T05:18:38;101870.38;;;7.99;100.00
5413;BME280;2729;50.056;8.678;2023-02-04T05:21:04;101878.63;;;7.68;100.00
5413;BME280;2729;50.056;8.678;2023-02-04T05:23:31;101877.81;;;7.73;100.00
5413;BME280;2729;50.056;8.678;2023-02-04T05:25:57;101871.16;;;7.92;100.00
5413;BME280;2729;50.056;8.678;2023-02-04T05:28:22;101882.31;;;7.84;100.00
5413;BME280;2729;50.056;8.678;2023-02-04T05:30:48;101877.75;;;7.69;100.00
5413;BME280;2729;50.056;8.678;2023-02-04T05:33:14;101882.94;;;7.69;100.00
5413;BME280;2729;50.056;8.678;2023-02-04T05:35:40;101884.59;;;7.61;100.00
5413;BME280;2729;50.056;8.678;2023-02-04T05:38:06;101884.44;;;7.50;100.00
5413;BME280;2729;50.056;8.678;2023-02-04T05:40:32;101894.63;;;7.36;100.00
5413;BME280;2729;50.056;8.678;2023-02-04T05:42:58;101898.03;;;7.32;100.00
5413;BME280;2729;50.056;8.678;2023-02-04T05:45:24;101908.81;;;7.60;100.00
5413;BME280;2729;50.056;8.678;2023-02-04T05:47:50;101912.16;;;7.51;100.00
5413;BME280;2729;50.056;8.678;2023-02-04T05:50:16;101905.38;;;7.62;100.00
5413;BME280;2729;50.056;8.678;2023-02-04T05:52:42;101908.03;;;7.65;100.00
5413;BME280;2729;50.056;8.678;2023-02-04T05:55:09;101905.44;;;7.67;100.00
5413;BME280;2729;50.056;8.678;2023-02-04T05:57:36;101901.41;;;7.87;100.00
5413;BME280;2729;50.056;8.678;2023-02-04T06:00:02;101906.41;;;7.75;100.00
5413;BME280;2729;50.056;8.678;2023-02-04T06:02:37;101899.06;;;8.09;100.00
5413;BME280;2729;50.056;8.678;2023-02-04T06:05:03;101905.88;;;7.97;100.00
5413;BME280;2729;50.056;8.678;2023-02-04T06:07:29;101912.88;;;8.03;100.00
5413;BME280;2729;50.056;8.678;2023-02-04T06:09:55;101922.16;;;7.83;100.00
5413;BME280;2729;50.056;8.678;2023-02-04T06:12:21;101915.97;;;7.78;100.00
5413;BME280;2729;50.056;8.678;2023-02-04T06:14:47;101919.53;;;7.81;100.00
5413;BME280;2729;50.056;8.678;2023-02-04T06:17:13;101919.38;;;7.72;100.00
5413;BME280;2729;50.056;8.678;2023-02-04T06:19:39;101921.28;;;7.84;100.00
5413;BME280;2729;50.056;8.678;2023-02-04T06:22:05;101928.25;;;7.86;100.00
5413;BME280;2729;50.056;8.678;2023-02-04T06:24:31;101929.97;;;7.84;100.00
5413;BME280;2729;50.056;8.678;2023-02-04T06:26:57;101937.78;;;7.86;100.00
5413;BME280;2729;50.056;8.678;2023-02-04T06:29:23;101934.38;;;7.91;100.00
5413;BME280;2729;50.056;8.678;2023-02-04T06:31:49;101936.97;;;7.90;100.00
5413;BME280;2729;50.056;8.678;2023-02-04T06:34:15;101942.38;;;8.05;100.00
5413;BME280;2729;50.056;8.678;2023-02-04T06:36:41;101940.78;;;8.18;100.00
5413;BME280;2729;50.056;8.678;2023-02-04T06:39:06;101944.19;;;8.12;100.00
5413;BME280;2729;50.056;8.678;2023-02-04T06:41:32;101946.03;;;8.21;100.00
5413;BME280;2729;50.056;8.678;2023-02-04T06:43:58;101942.41;;;8.08;100.00
5413;BME280;2729;50.056;8.678;2023-02-04T06:46:24;101951.19;;;8.18;100.00
5413;BME280;2729;50.056;8.678;2023-02-04T06:48:50;101948.47;;;8.09;100.00
5413;BME280;2729;50.056;8.678;2023-02-04T06:51:16;101958.06;;;8.13;100.00
5413;BME280;2729;50.056;8.678;2023-02-04T06:53:42;101952.03;;;8.17;100.00
5413;BME280;2729;50.056;8.678;2023-02-04T06:56:10;101959.81;;;8.15;100.00
5413;BME280;2729;50.056;8.678;2023-02-04T06:58:36;101959.72;;;8.07;100.00
5413;BME280;2729;50.056;8.678;2023-02-04T07:01:02;101962.16;;;7.95;100.00
5413;BME280;2729;50.056;8.678;2023-02-04T07:03:28;101970.97;;;8.06;100.00
5413;BME280;2729;50.056;8.678;2023-02-04T07:05:54;101978.59;;;7.93;100.00
5413;BME280;2729;50.056;8.678;2023-02-04T07:08:20;101981.09;;;7.85;100.00
5413;BME280;2729;50.056;8.678;2023-02-04T07:10:47;101974.31;;;7.96;100.00
5413;BME280;2729;50.056;8.678;2023-02-04T07:13:12;101977.13;;;8.12;100.00
5413;BME280;2729;50.056;8.678;2023-02-04T07:15:38;101984.97;;;8.16;100.00
5413;BME280;2729;50.056;8.678;2023-02-04T07:18:04;101985.78;;;8.12;100.00
5413;BME280;2729;50.056;8.678;2023-02-04T07:20:30;102000.41;;;8.04;100.00
5413;BME280;2729;50.056;8.678;2023-02-04T07:22:56;102004.88;;;8.14;100.00
5413;BME280;2729;50.056;8.678;2023-02-04T07:25:22;102003.88;;;8.03;100.00
5413;BME280;2729;50.056;8.678;2023-02-04T07:27:48;102010.09;;;8.16;100.00
5413;BME280;2729;50.056;8.678;2023-02-04T07:30:14;102014.50;;;8.21;100.00
5413;BME280;2729;50.056;8.678;2023-02-04T07:32:40;102017.94;;;8.17;100.00
5413;BME280;2729;50.056;8.678;2023-02-04T07:35:06;102020.53;;;8.19;100.00
5413;BME280;2729;50.056;8.678;2023-02-04T07:37:32;102022.38;;;8.26;100.00
5413;BME280;2729;50.056;8.678;2023-02-04T07:39:58;102023.09;;;8.16;100.00
5413;BME280;2729;50.056;8.678;2023-02-04T07:42:24;102032.56;;;8.11;100.00
5413;BME280;2729;50.056;8.678;2023-02-04T07:44:58;102036.78;;;8.02;100.00
5413;BME280;2729;50.056;8.678;2023-02-04T07:47:24;102041.06;;;7.97;100.00
5413;BME280;2729;50.056;8.678;2023-02-04T07:49:50;102039.25;;;7.92;100.00
5413;BME280;2729;50.056;8.678;2023-02-04T07:52:16;102038.31;;;7.87;100.00
5413;BME280;2729;50.056;8.678;2023-02-04T07:54:42;102046.03;;;7.82;100.00
5413;BME280;2729;50.056;8.678;2023-02-04T07:57:07;102053.69;;;7.74;100.00
5413;BME280;2729;50.056;8.678;2023-02-04T07:59:33;102050.25;;;7.77;100.00
5413;BME280;2729;50.056;8.678;2023-02-04T08:01:59;102058.06;;;7.79;100.00
5413;BME280;2729;50.056;8.678;2023-02-04T08:04:26;102065.19;;;7.87;100.00
5413;BME280;2729;50.056;8.678;2023-02-04T08:06:52;102066.03;;;7.86;100.00
5413;BME280;2729;50.056;8.678;2023-02-04T08:09:18;102067.75;;;7.86;100.00
5413;BME280;2729;50.056;8.678;2023-02-04T08:11:44;102063.56;;;7.95;100.00
5413;BME280;2729;50.056;8.678;2023-02-04T08:14:10;102070.63;;;8.04;100.00
5413;BME280;2729;50.056;8.678;2023-02-04T08:16:36;102063.66;;;8.01;100.00
5413;BME280;2729;50.056;8.678;2023-02-04T08:19:02;102072.31;;;8.02;100.00
5413;BME280;2729;50.056;8.678;2023-02-04T08:21:28;102065.56;;;8.15;100.00
5413;BME280;2729;50.056;8.678;2023-02-04T08:23:54;102076.25;;;8.33;100.00
5413;BME280;2729;50.056;8.678;2023-02-04T08:26:20;102085.13;;;8.47;100.00
5413;BME280;2729;50.056;8.678;2023-02-04T08:28:46;102088.81;;;8.64;100.00
5413;BME280;2729;50.056;8.678;2023-02-04T08:31:12;102090.63;;;8.72;100.00
5413;BME280;2729;50.056;8.678;2023-02-04T08:33:38;102096.00;;;8.87;100.00
5413;BME280;2729;50.056;8.678;2023-02-04T08:36:06;102091.78;;;8.96;100.00
5413;BME280;2729;50.056;8.678;2023-02-04T08:38:32;102094.47;;;9.04;100.00
5413;BME280;2729;50.056;8.678;2023-02-04T08:40:58;102090.22;;;9.14;100.00
5413;BME280;2729;50.056;8.678;2023-02-04T08:43:25;102097.28;;;9.24;100.00
5413;BME280;2729;50.056;8.678;2023-02-04T08:45:51;102099.81;;;9.18;100.00
5413;BME280;2729;50.056;8.678;2023-02-04T08:48:17;102117.41;;;9.39;100.00
5413;BME280;2729;50.056;8.678;2023-02-04T08:50:43;102114.78;;;9.39;100.00
5413;BME280;2729;50.056;8.678;2023-02-04T08:53:09;102109.34;;;9.16;100.00
5413;BME280;2729;50.056;8.678;2023-02-04T08:55:35;102109.50;;;9.31;100.00
5413;BME280;2729;50.056;8.678;2023-02-04T08:58:01;102114.81;;;9.40;100.00
5413;BME280;2729;50.056;8.678;2023-02-04T09:00:27;102119.81;;;9.20;100.00
5413;BME280;2729;50.056;8.678;2023-02-04T09:02:53;102122.25;;;9.05;100.00
5413;BME280;2729;50.056;8.678;2023-02-04T09:05:19;102116.72;;;9.59;100.00
5413;BME280;2729;50.056;8.678;2023-02-04T09:07:45;102122.91;;;9.71;100.00
5413;BME280;2729;50.056;8.678;2023-02-04T09:10:11;102119.25;;;9.52;100.00
5413;BME280;2729;50.056;8.678;2023-02-04T09:12:37;102115.03;;;9.66;100.00
5413;BME280;2729;50.056;8.678;2023-02-04T09:15:03;102128.97;;;9.68;100.00
5413;BME280;2729;50.056;8.678;2023-02-04T09:17:30;102130.50;;;9.48;100.00
5413;BME280;2729;50.056;8.678;2023-02-04T09:19:56;102127.97;;;9.54;100.00
5413;BME280;2729;50.056;8.678;2023-02-04T09:22:21;102127.31;;;9.81;100.00
5413;BME280;2729;50.056;8.678;2023-02-04T09:24:47;102136.66;;;9.53;100.00
5413;BME280;2729;50.056;8.678;2023-02-04T09:27:13;102127.16;;;9.59;100.00
5413;BME280;2729;50.056;8.678;2023-02-04T09:29:39;102139.31;;;9.59;100.00
5413;BME280;2729;50.056;8.678;2023-02-04T09:32:05;102132.31;;;9.53;100.00
5413;BME280;2729;50.056;8.678;2023-02-04T09:34:31;102134.97;;;9.61;100.00
5413;BME280;2729;50.056;8.678;2023-02-04T09:36:57;102141.31;;;9.92;100.00
5413;BME280;2729;50.056;8.678;2023-02-04T09:39:23;102139.66;;;10.03;100.00
5413;BME280;2729;50.056;8.678;2023-02-04T09:41:50;102140.50;;;9.99;100.00
5413;BME280;2729;50.056;8.678;2023-02-04T09:44:21;102145.75;;;10.00;100.00
5413;BME280;2729;50.056;8.678;2023-02-04T09:46:51;102154.16;;;9.69;100.00
5413;BME280;2729;50.056;8.678;2023-02-04T09:49:17;102154.34;;;9.90;100.00
5413;BME280;2729;50.056;8.678;2023-02-04T09:51:44;102156.06;;;9.85;100.00
5413;BME280;2729;50.056;8.678;2023-02-04T09:54:14;102155.19;;;9.86;100.00
5413;BME280;2729;50.056;8.678;2023-02-04T09:56:41;102161.47;;;10.10;100.00
5413;BME280;2729;50.056;8.678;2023-02-04T09:59:26;102165.13;;;10.33;100.00
5413;BME280;2729;50.056;8.678;2023-02-04T10:02:01;102171.91;;;10.13;100.00
5413;BME280;2729;50.056;8.678;2023-02-04T10:04:27;102176.28;;;10.14;100.00
5413;BME280;2729;50.056;8.678;2023-02-04T10:06:54;102177.25;;;10.22;100.00
5413;BME280;2729;50.056;8.678;2023-02-04T10:09:23;102184.19;;;10.20;100.00
5413;BME280;2729;50.056;8.678;2023-02-04T10:11:49;102195.66;;;9.48;100.00
5413;BME280;2729;50.056;8.678;2023-02-04T10:14:18;102193.25;;;9.67;100.00
5413;BME280;2729;50.056;8.678;2023-02-04T10:16:53;102194.19;;;9.74;100.00
5413;BME280;2729;50.056;8.678;2023-02-04T10:19:20;102195.16;;;9.85;100.00
5413;BME280;2729;50.056;8.678;2023-02-04T10:21:47;102201.16;;;9.74;100.00
5413;BME280;2729;50.056;8.678;2023-02-04T10:24:15;102206.78;;;9.30;100.00
5413;BME280;2729;50.056;8.678;2023-02-04T10:26:42;102208.72;;;9.51;100.00
5413;BME280;2729;50.056;8.678;2023-02-04T10:29:14;102205.28;;;9.53;100.00
5413;BME280;2729;50.056;8.678;2023-02-04T10:31:42;102214.84;;;9.54;100.00
5413;BME280;2729;50.056;8.678;2023-02-04T10:34:14;102208.75;;;9.52;100.00
5413;BME280;2729;50.056;8.678;2023-02-04T10:36:43;102206.41;;;9.78;100.00
5413;BME280;2729;50.056;8.678;2023-02-04T10:39:14;102206.41;;;9.80;100.00
5413;BME280;2729;50.056;8.678;2023-02-04T10:41:50;102215.84;;;9.65;100.00
5413;BME280;2729;50.056;8.678;2023-02-04T10:44:32;102218.59;;;9.79;100.00
5413;BME280;2729;50.056;8.678;2023-02-04T10:47:13;102217.91;;;10.00;100.00
5413;BME280;2729;50.056;8.678;2023-02-04T10:49:40;102210.88;;;9.93;100.00
5413;BME280;2729;50.056;8.678;2023-02-04T10:52:15;102206.59;;;9.99;100.00
5413;BME280;2729;50.056;8.678;2023-02-04T10:54:41;102210.69;;;9.73;100.00
5413;BME280;2729;50.056;8.678;2023-02-04T10:57:20;102216.38;;;9.34;100.00
5413;BME280;2729;50.056;8.678;2023-02-04T10:59:48;102207.38;;;9.88;100.00
5413;BME280;2729;50.056;8.678;2023-02-04T11:05:00;102211.03;;;10.10;100.00
5413;BME280;2729;50.056;8.678;2023-02-04T11:07:26;102210.84;;;9.87;100.00
5413;BME280;2729;50.056;8.678;2023-02-04T11:09:52;102210.06;;;9.98;100.00
5413;BME280;2729;50.056;8.678;2023-02-04T11:15:04;102212.97;;;10.30;100.00
5413;BME280;2729;50.056;8.678;2023-02-04T11:17:32;102206.03;;;10.32;100.00
5413;BME280;2729;50.056;8.678;2023-02-04T11:19:58;102206.91;;;10.33;100.00
5413;BME280;2729;50.056;8.678;2023-02-04T11:22:44;102206.66;;;10.06;100.00
5413;BME280;2729;50.056;8.678;2023-02-04T11:25:30;102208.03;;;9.67;100.00
5413;BME280;2729;50.056;8.678;2023-02-04T11:27:57;102210.81;;;9.84;100.00
5413;BME280;2729;50.056;8.678;2023-02-04T11:30:30;102220.13;;;9.59;100.00
5413;BME280;2729;50.056;8.678;2023-02-04T11:33:01;102210.84;;;9.88;100.00
5413;BME280;2729;50.056;8.678;2023-02-04T11:35:29;102198.53;;;9.74;100.00
5413;BME280;2729;50.056;8.678;2023-02-04T11:37:56;102204.81;;;9.95;100.00
5413;BME280;2729;50.056;8.678;2023-02-04T11:43:00;102217.91;;;10.00;100.00
5413;BME280;2729;50.056;8.678;2023-02-04T11:45:30;102211.84;;;10.03;100.00
5413;BME280;2729;50.056;8.678;2023-02-04T11:47:59;102211.56;;;9.72;100.00
5413;BME280;2729;50.056;8.678;2023-02-04T11:50:34;102215.16;;;9.85;100.00
5413;BME280;2729;50.056;8.678;2023-02-04T11:53:03;102216.25;;;10.10;100.00
5413;BME280;2729;50.056;8.678;2023-02-04T11:55:31;102206.88;;;10.31;100.00
5413;BME280;2729;50.056;8.678;2023-02-04T11:57:59;102217.16;;;10.16;99.95
5413;BME280;2729;50.056;8.678;2023-02-04T12:00:29;102216.41;;;10.25;99.59
5413;BME280;2729;50.056;8.678;2023-02-04T12:03:04;102224.84;;;9.98;97.38
5413;BME280;2729;50.056;8.678;2023-02-04T12:05:41;102210.22;;;10.18;98.02
5413;BME280;2729;50.056;8.678;2023-02-04T12:08:12;102218.03;;;10.17;98.50
5413;BME280;2729;50.056;8.678;2023-02-04T12:10:47;102222.56;;;10.33;97.29
5413;BME280;2729;50.056;8.678;2023-02-04T12:13:17;102219.31;;;10.65;98.58
5413;BME280;2729;50.056;8.678;2023-02-04T12:15:53;102216.59;;;10.46;99.85
5413;BME280;2729;50.056;8.678;2023-02-04T12:18:20;102219.38;;;10.74;98.50
5413;BME280;2729;50.056;8.678;2023-02-04T12:20:46;102215.09;;;10.89;94.80
5413;BME280;2729;50.056;8.678;2023-02-04T12:23:12;102214.19;;;10.78;88.55
5413;BME280;2729;50.056;8.678;2023-02-04T12:25:37;102209.84;;;10.80;87.13
5413;BME280;2729;50.056;8.678;2023-02-04T12:28:03;102212.53;;;10.99;90.13
5413;BME280;2729;50.056;8.678;2023-02-04T12:30:29;102215.06;;;10.83;90.61
5413;BME280;2729;50.056;8.678;2023-02-04T12:32:55;102214.22;;;10.89;89.53
5413;BME280;2729;50.056;8.678;2023-02-04T12:35:21;102216.69;;;10.63;88.41
5413;BME280;2729;50.056;8.678;2023-02-04T12:37:48;102211.47;;;10.63;88.78
5413;BME280;2729;50.056;8.678;2023-02-04T12:40:19;102220.84;;;10.38;89.08
5413;BME280;2729;50.056;8.678;2023-02-04T12:42:46;102214.13;;;10.68;92.02
5413;BME280;2729;50.056;8.678;2023-02-04T12:45:13;102220.94;;;10.44;89.24
5413;BME280;2729;50.056;8.678;2023-02-04T12:47:40;102218.38;;;10.55;92.01
5413;BME280;2729;50.056;8.678;2023-02-04T12:50:08;102219.16;;;10.40;93.70
5413;BME280;2729;50.056;8.678;2023-02-04T12:52:34;102218.34;;;10.47;88.88
5413;BME280;2729;50.056;8.678;2023-02-04T12:55:02;102231.53;;;10.67;88.90
5413;BME280;2729;50.056;8.678;2023-02-04T12:57:33;102228.97;;;10.76;87.70
5413;BME280;2729;50.056;8.678;2023-02-04T12:59:59;102234.97;;;10.61;88.66
5413;BME280;2729;50.056;8.678;2023-02-04T13:02:27;102232.13;;;10.34;83.33
5413;BME280;2729;50.056;8.678;2023-02-04T13:04:53;102224.59;;;10.71;81.92
5413;BME280;2729;50.056;8.678;2023-02-04T13:07:19;102228.03;;;10.63;80.05
5413;BME280;2729;50.056;8.678;2023-02-04T13:09:46;102221.22;;;10.91;83.44
5413;BME280;2729;50.056;8.678;2023-02-04T13:12:13;102226.50;;;11.04;83.00
5413;BME280;2729;50.056;8.678;2023-02-04T13:14:40;102230.84;;;11.02;82.97
5413;BME280;2729;50.056;8.678;2023-02-04T13:17:07;102226.28;;;10.62;81.85